Time;durP1;ratioP1;P1;durP2;ratioP2;P2;SDS_P1;SDS_P2;PMS_P1;PMS_P2;Temp;Humidity;BMP_temperature;BMP_pressure;BME280_temperature;BME280_humidity;BME280_pressure;Samples;Min_cycle;Max_cycle;Signal;HPM_P1;HPM_P2
2020/12/16 00:01:27;;;;;;;1999.90;999.90;;;;;;;9.59;76.66;101161.94;15813835;28;20066;-61
2020/12/16 00:09:01;;;;;;;1999.90;999.90;;;;;;;9.72;76.73;101181.41;15867827;28;20043;-57
2020/12/16 00:16:33;;;;;;;1999.90;999.90;;;;;;;9.64;76.57;101184.97;15850292;28;20489;-56
2020/12/16 00:24:07;;;;;;;1999.90;999.90;;;;;;;9.70;76.56;101192.06;15863010;27;20122;-54
2020/12/16 00:31:39;;;;;;;1999.90;999.90;;;;;;;9.79;76.24;101206.88;15850831;28;20044;-59
2020/12/16 00:39:13;;;;;;;1999.90;999.90;;;;;;;9.77;76.52;101213.91;15821460;28;20043;-58
2020/12/16 00:46:46;;;;;;;1999.90;999.90;;;;;;;9.76;76.32;101218.66;15830049;28;20043;-58
2020/12/16 00:54:19;;;;;;;1999.90;999.90;;;;;;;9.90;76.06;101237.28;15845085;28;20053;-58
2020/12/16 01:01:52;;;;;;;1999.90;999.90;;;;;;;9.88;76.05;101245.13;15831417;28;20091;-57
2020/12/16 01:09:26;;;;;;;1999.90;999.90;;;;;;;10.04;76.46;101269.56;15787436;28;20436;-54
2020/12/16 01:16:59;;;;;;;1999.90;999.90;;;;;;;10.22;75.31;101267.75;15849535;28;20465;-60
2020/12/16 01:24:38;;;;;;;1999.90;999.90;;;;;;;10.27;75.70;101275.16;15830439;28;20138;-60
2020/12/16 01:32:14;;;;;;;1999.90;999.90;;;;;;;10.40;75.59;101283.47;15866986;28;20062;-61
2020/12/16 01:39:48;;;;;;;1999.90;999.90;;;;;;;10.33;75.62;101290.66;15805115;28;20123;-58
2020/12/16 01:47:27;;;;;;;1999.90;999.90;;;;;;;10.33;75.60;101291.47;15812122;28;20168;-60
2020/12/16 01:55:12;;;;;;;1999.90;999.90;;;;;;;10.30;76.32;101296.84;15800026;28;20047;-58
2020/12/16 02:02:57;;;;;;;1999.90;999.90;;;;;;;10.38;75.88;101294.13;15820027;28;20035;-58
2020/12/16 02:10:40;;;;;;;1999.90;999.90;;;;;;;10.38;75.88;101299.69;15805819;28;20055;-60
2020/12/16 02:18:14;;;;;;;1999.90;999.90;;;;;;;10.44;75.86;101322.72;15821348;28;20436;-61
2020/12/16 02:25:49;;;;;;;1999.90;999.90;;;;;;;10.39;75.46;101320.88;15838254;28;20064;-60
2020/12/16 02:33:22;;;;;;;1999.90;999.90;;;;;;;10.49;75.17;101333.75;15837096;28;20032;-58
2020/12/16 02:41:05;;;;;;;1999.90;999.90;;;;;;;10.38;76.18;101338.75;15821469;28;20044;-57
2020/12/16 02:48:38;;;;;;;1999.90;999.90;;;;;;;10.60;75.47;101337.09;15856712;28;20048;-60
2020/12/16 02:56:13;;;;;;;1999.90;999.90;;;;;;;10.54;76.39;101343.97;15830019;28;20055;-58
2020/12/16 03:03:55;;;;;;;1999.90;999.90;;;;;;;10.50;76.87;101345.72;15835963;28;20048;-61
2020/12/16 03:11:44;;;;;;;1999.90;999.90;;;;;;;10.59;76.17;101346.63;15829044;28;20485;-60
2020/12/16 03:19:19;;;;;;;1999.90;999.90;;;;;;;10.63;76.45;101367.19;15803847;28;20043;-57
2020/12/16 03:26:52;;;;;;;1999.90;999.90;;;;;;;10.62;77.07;101371.09;15823462;28;20034;-55
2020/12/16 03:34:46;;;;;;;1999.90;999.90;;;;;;;10.60;76.58;101370.59;15821290;28;20138;-58
2020/12/16 03:42:25;;;;;;;1999.90;999.90;;;;;;;10.70;76.79;101382.31;15842087;28;20040;-61
2020/12/16 03:49:57;;;;;;;;;;;;;;;10.85;76.13;101383.91;15829407;28;20076;-62
2020/12/16 03:57:31;;;;;;;1999.90;999.90;;;;;;;10.73;76.44;101380.03;15791649;28;19919;-58
2020/12/16 04:05:37;;;;;;;1999.90;999.90;;;;;;;10.64;77.04;101400.34;15810430;28;20093;-58
2020/12/16 04:13:14;;;;;;;1999.90;999.90;;;;;;;10.75;76.67;101402.91;15806575;28;20044;-59
2020/12/16 04:20:48;;;;;;;1999.90;999.90;;;;;;;10.64;77.30;101405.94;15773057;28;20048;-57
2020/12/16 04:28:22;;;;;;;1999.90;999.90;;;;;;;10.61;77.89;101406.53;15850776;28;20093;-61
2020/12/16 04:35:56;;;;;;;1999.90;999.90;;;;;;;10.80;76.81;101411.94;15808106;28;20039;-60
2020/12/16 04:43:32;;;;;;;1999.90;999.90;;;;;;;10.88;76.24;101427.13;15826077;28;20067;-58
2020/12/16 04:51:06;;;;;;;1999.90;999.90;;;;;;;10.86;76.35;101444.19;15800275;28;20071;-61
2020/12/16 04:58:40;;;;;;;1999.90;999.90;;;;;;;10.82;76.77;101443.16;15815426;28;20074;-60
2020/12/16 05:06:33;;;;;;;1999.90;999.90;;;;;;;10.88;76.58;101447.47;15824575;28;20093;-58
2020/12/16 05:14:12;;;;;;;1999.90;999.90;;;;;;;10.81;77.42;101463.84;15787353;28;20043;-57
2020/12/16 05:21:44;;;;;;;1999.90;999.90;;;;;;;10.81;76.77;101463.84;15866157;28;20036;-61
2020/12/16 05:29:26;;;;;;;1999.90;999.90;;;;;;;10.83;77.22;101469.09;15848923;28;20039;-60
2020/12/16 05:36:59;;;;;;;1999.90;999.90;;;;;;;10.85;76.68;101478.03;15848529;28;20052;-61
2020/12/16 05:44:32;;;;;;;1999.90;999.90;;;;;;;10.74;77.19;101485.00;15802883;28;20446;-57
2020/12/16 05:52:06;;;;;;;1999.90;999.90;;;;;;;10.53;77.85;101498.59;15819875;28;20044;-59
2020/12/16 05:59:40;;;;;;;1999.90;999.90;;;;;;;10.47;77.87;101499.84;15813710;28;20092;-59
2020/12/16 06:07:19;;;;;;;1999.90;999.90;;;;;;;10.60;77.91;101498.97;15855449;28;20412;-57
2020/12/16 06:15:04;;;;;;;1999.90;999.90;;;;;;;10.58;77.68;101513.25;15866477;28;20040;-59
2020/12/16 06:22:37;;;;;;;1999.90;999.90;;;;;;;10.46;77.51;101517.72;15801912;28;20212;-60
2020/12/16 06:30:16;;;;;;;1999.90;999.90;;;;;;;10.46;77.64;101524.13;15860042;28;20131;-58
2020/12/16 06:38:16;;;;;;;1999.90;999.90;;;;;;;10.53;77.13;101535.69;15863742;28;20052;-59
2020/12/16 06:45:49;;;;;;;1999.90;999.90;;;;;;;10.37;78.11;101543.56;15795183;28;20035;-58
2020/12/16 06:53:22;;;;;;;1999.90;999.90;;;;;;;10.51;77.88;101553.88;15863845;28;20071;-58
2020/12/16 07:01:11;;;;;;;1999.90;999.90;;;;;;;10.46;78.21;101565.97;15875309;28;20059;-61
2020/12/16 07:08:44;;;;;;;1999.90;999.90;;;;;;;10.48;77.77;101574.03;15856602;28;20048;-60
2020/12/16 07:16:33;;;;;;;1999.90;999.90;;;;;;;10.54;77.47;101579.22;15856492;28;20416;-59
2020/12/16 07:24:12;;;;;;;1999.90;999.90;;;;;;;10.50;76.93;101591.28;15873905;28;20847;-61
2020/12/16 07:32:06;;;;;;;1999.90;999.90;;;;;;;10.38;77.09;101601.00;15855166;28;20051;-58
2020/12/16 07:39:51;;;;;;;1999.90;999.90;;;;;;;10.34;77.19;101601.97;15873247;28;20424;-58
2020/12/16 07:47:25;;;;;;;1999.90;999.90;;;;;;;10.45;77.69;101591.41;15854486;28;20046;-58
2020/12/16 07:54:58;;;;;;;1999.90;999.90;;;;;;;10.28;78.71;101603.19;15854242;28;20542;-60
2020/12/16 08:02:33;;;;;;;1999.90;999.90;;;;;;;10.61;76.99;101595.50;15872374;28;20047;-60
2020/12/16 08:10:06;;;;;;;;;;;;;;;10.37;78.81;101591.00;15854092;28;20047;-58
2020/12/16 08:17:41;;;;;;;1999.90;999.90;;;;;;;10.44;78.06;101589.75;15835574;28;19920;-61
2020/12/16 08:25:15;;;;;;;1999.90;999.90;;;;;;;10.53;77.25;101597.09;15852494;28;20040;-64
2020/12/16 08:32:56;;;;;;;1999.90;999.90;;;;;;;10.39;78.30;101599.88;15852981;28;20039;-63
2020/12/16 08:40:30;;;;;;;1999.90;999.90;;;;;;;10.60;79.09;101605.03;15870183;28;20413;-62
2020/12/16 08:48:04;;;;;;;1999.90;999.90;;;;;;;10.99;77.69;101608.06;15868993;28;20404;-63
2020/12/16 08:55:37;;;;;;;1999.90;999.90;;;;;;;11.84;74.92;101627.81;15850927;28;20057;-64
2020/12/16 09:03:13;;;;;;;1999.90;999.90;;;;;;;11.69;75.52;101639.38;15850547;28;20059;-61
2020/12/16 09:10:57;;;;;;;1999.90;999.90;;;;;;;12.00;73.97;101633.84;15850832;28;20043;-64
2020/12/16 09:18:32;;;;;;;1999.90;999.90;;;;;;;11.77;74.38;101636.63;15850206;28;20044;-63
2020/12/16 09:26:05;;;;;;;1999.90;999.90;;;;;;;11.59;74.81;101646.03;15875584;28;20051;-60
2020/12/16 09:33:40;;;;;;;1999.90;999.90;;;;;;;11.79;74.63;101647.50;15881351;28;20044;-60
2020/12/16 09:41:13;;;;;;;1999.90;999.90;;;;;;;12.17;72.76;101647.91;15862042;28;20114;-63
2020/12/16 09:48:48;;;;;;;1999.90;999.90;;;;;;;12.55;71.63;101653.03;15879621;28;20089;-62
2020/12/16 09:56:25;;;;;;;1999.90;999.90;;;;;;;12.92;70.45;101666.50;15879102;28;20040;-63
2020/12/16 10:03:58;;;;;;;1999.90;999.90;;;;;;;13.82;68.10;101669.53;15860964;28;20539;-63
2020/12/16 10:11:31;;;;;;;1999.90;999.90;;;;;;;13.41;67.82;101672.03;15860336;28;20504;-62
2020/12/16 10:19:04;;;;;;;1999.90;999.90;;;;;;;13.17;69.55;101680.88;15878118;28;20122;-63
2020/12/16 10:26:37;;;;;;;1999.90;999.90;;;;;;;12.95;70.40;101670.63;15877351;28;20088;-61
2020/12/16 10:34:11;;;;;;;1999.90;999.90;;;;;;;12.67;71.49;101682.06;15858530;28;20118;-62
2020/12/16 10:41:49;;;;;;;1999.90;999.90;;;;;;;12.63;71.76;101681.06;15859511;28;20158;-62
2020/12/16 10:49:23;;;;;;;1999.90;999.90;;;;;;;12.79;71.18;101684.22;15876116;28;20047;-61
2020/12/16 10:56:57;;;;;;;1999.90;999.90;;;;;;;12.94;70.35;101683.81;15875890;28;20535;-61
2020/12/16 11:04:31;;;;;;;1999.90;999.90;;;;;;;12.83;71.11;101688.06;15857151;28;20051;-60
2020/12/16 11:12:04;;;;;;;1999.90;999.90;;;;;;;12.62;71.39;101678.59;15875262;28;20047;-60
2020/12/16 11:19:38;;;;;;;1999.90;999.90;;;;;;;13.02;70.06;101679.34;15875128;28;20047;-64
2020/12/16 11:27:10;;;;;;;1999.90;999.90;;;;;;;12.58;69.88;101664.41;15855709;28;20312;-64
2020/12/16 11:34:45;;;;;;;1999.90;999.90;;;;;;;12.70;69.05;101669.38;15873718;28;20067;-62
2020/12/16 11:42:18;;;;;;;1999.90;999.90;;;;;;;12.59;67.80;101659.63;15873297;28;20458;-64
2020/12/16 11:49:52;;;;;;;1999.90;999.90;;;;;;;12.88;67.23;101665.47;15853160;28;20509;-64
2020/12/16 11:57:25;;;;;;;1999.90;999.90;;;;;;;12.69;66.44;101664.94;15854100;28;20134;-61
2020/12/16 12:04:58;;;;;;;1999.90;999.90;;;;;;;12.43;67.29;101674.06;15853256;28;20075;-61
2020/12/16 12:12:31;;;;;;;1999.90;999.90;;;;;;;12.67;66.20;101670.84;15854085;28;20048;-62
2020/12/16 12:20:05;;;;;;;1999.90;999.90;;;;;;;12.83;66.71;101660.03;15871391;28;20043;-63
2020/12/16 12:27:38;;;;;;;1999.90;999.90;;;;;;;13.16;65.53;101654.81;15869823;28;20134;-62
2020/12/16 12:35:12;;;;;;;1999.90;999.90;;;;;;;13.73;63.73;101654.69;15835457;28;20040;-63
2020/12/16 12:42:45;;;;;;;1999.90;999.90;;;;;;;12.90;65.13;101668.78;15869321;28;20044;-64
2020/12/16 12:50:18;;;;;;;1999.90;999.90;;;;;;;13.25;64.89;101669.72;15869021;28;20428;-63
2020/12/16 12:57:51;;;;;;;1999.90;999.90;;;;;;;12.65;66.73;101661.97;15850353;28;20493;-62
2020/12/16 13:05:25;;;;;;;1999.90;999.90;;;;;;;12.64;66.80;101657.50;15850167;28;20075;-62
2020/12/16 13:12:57;;;;;;;1999.90;999.90;;;;;;;12.26;68.51;101662.78;15850532;28;20480;-63
2020/12/16 13:20:31;;;;;;;1999.90;999.90;;;;;;;12.71;67.27;101668.22;15868078;28;20489;-63
2020/12/16 13:28:04;;;;;;;1999.90;999.90;;;;;;;12.28;67.94;101668.88;15867429;28;20162;-63
2020/12/16 13:35:38;;;;;;;1999.90;999.90;;;;;;;12.04;69.05;101651.63;15849262;28;20094;-61
2020/12/16 13:43:12;;;;;;;1999.90;999.90;;;;;;;12.01;69.18;101667.09;15867379;28;20036;-63
2020/12/16 13:50:46;;;;;;;1999.90;999.90;;;;;;;11.90;70.22;101656.50;15866840;28;20039;-61
2020/12/16 13:58:19;;;;;;;1999.90;999.90;;;;;;;11.64;71.39;101679.47;15862461;28;20398;-63
2020/12/16 14:05:52;;;;;;;1999.90;999.90;;;;;;;11.72;71.15;101689.06;15828288;28;20040;-61
2020/12/16 14:13:26;;;;;;;1999.90;999.90;;;;;;;11.41;73.00;101681.41;15850993;28;20066;-61
2020/12/16 14:21:03;;;;;;;1999.90;999.90;;;;;;;11.56;72.68;101681.03;15855114;28;20180;-62
2020/12/16 14:28:37;;;;;;;1999.90;999.90;;;;;;;11.49;73.66;101689.03;15876954;28;20480;-62
2020/12/16 14:36:12;;;;;;;1999.90;999.90;;;;;;;11.34;74.53;101691.34;15859216;28;20044;-63
2020/12/16 14:43:45;;;;;;;1999.90;999.90;;;;;;;11.40;74.40;101690.94;15863428;28;20086;-61
2020/12/16 14:51:19;;;;;;;1999.90;999.90;;;;;;;11.32;74.63;101688.06;15873762;28;20058;-61
2020/12/16 14:58:51;;;;;;;1999.90;999.90;;;;;;;11.25;75.32;101694.06;15875550;28;20143;-62
2020/12/16 15:06:25;;;;;;;1999.90;999.90;;;;;;;11.14;75.18;101703.81;15875163;28;20043;-62
2020/12/16 15:13:58;;;;;;;1999.90;999.90;;;;;;;11.16;74.88;101707.97;15856889;28;20047;-67
2020/12/16 15:21:32;;;;;;;1999.90;999.90;;;;;;;10.91;76.50;101706.53;15874388;28;20425;-59
2020/12/16 15:29:06;;;;;;;1999.90;999.90;;;;;;;11.03;75.72;101708.78;15855947;28;20101;-60
2020/12/16 15:36:39;;;;;;;;;;;;;;;11.12;75.52;101731.25;15874737;28;20505;-58
2020/12/16 15:44:12;;;;;;;1999.90;999.90;;;;;;;11.04;75.64;101729.19;15874018;28;19973;-61
2020/12/16 15:51:46;;;;;;;1999.90;999.90;;;;;;;11.12;75.57;101736.84;15873143;28;20036;-55
2020/12/16 15:59:19;;;;;;;1999.90;999.90;;;;;;;10.80;76.67;101737.78;15874724;28;20293;-54
2020/12/16 16:06:53;;;;;;;1999.90;999.90;;;;;;;10.90;76.56;101740.38;15875152;28;20120;-55
2020/12/16 16:14:27;;;;;;;1999.90;999.90;;;;;;;11.02;75.91;101729.50;15854837;28;20062;-58
2020/12/16 16:22:00;;;;;;;1999.90;999.90;;;;;;;11.21;75.36;101734.97;15870745;28;20049;-57
2020/12/16 16:29:35;;;;;;;1999.90;999.90;;;;;;;10.88;76.57;101739.84;15870099;28;20497;-56
2020/12/16 16:37:09;;;;;;;1999.90;999.90;;;;;;;10.65;78.00;101744.50;15868974;28;20039;-58
2020/12/16 16:44:44;;;;;;;1999.90;999.90;;;;;;;10.86;76.95;101728.16;15851350;28;20067;-58
2020/12/16 16:52:19;;;;;;;1999.90;999.90;;;;;;;10.66;77.77;101738.59;15851083;28;20059;-58
2020/12/16 16:59:52;;;;;;;1999.90;999.90;;;;;;;10.87;76.61;101741.81;15868509;28;20127;-58
2020/12/16 17:07:25;;;;;;;1999.90;999.90;;;;;;;10.67;77.92;101739.44;15850134;28;20130;-57
2020/12/16 17:14:58;;;;;;;1999.90;999.90;;;;;;;10.71;77.63;101740.44;15849932;28;20130;-58
2020/12/16 17:22:32;;;;;;;1999.90;999.90;;;;;;;10.74;77.56;101742.66;15868400;28;20053;-58
2020/12/16 17:30:04;;;;;;;1999.90;999.90;;;;;;;10.36;79.18;101759.53;15832527;28;20047;-62
2020/12/16 17:37:38;;;;;;;1999.90;999.90;;;;;;;10.58;78.06;101742.09;15867555;28;20052;-58
2020/12/16 17:45:11;;;;;;;1999.90;999.90;;;;;;;10.36;78.84;101744.75;15869546;28;20518;-59
2020/12/16 17:52:45;;;;;;;1999.90;999.90;;;;;;;10.38;79.29;101754.47;15865548;28;20513;-59
2020/12/16 18:00:17;;;;;;;1999.90;999.90;;;;;;;10.40;78.73;101754.16;15880982;27;20043;-59
2020/12/16 18:07:53;;;;;;;1999.90;999.90;;;;;;;10.36;78.17;101747.53;15848786;28;20039;-58
2020/12/16 18:15:25;;;;;;;1999.90;999.90;;;;;;;10.36;77.84;101758.72;15843320;28;20082;-58
2020/12/16 18:22:59;;;;;;;1999.90;999.90;;;;;;;10.25;77.93;101763.63;15848972;28;20044;-57
2020/12/16 18:30:33;;;;;;;1999.90;999.90;;;;;;;10.41;76.46;101761.38;15858267;28;20414;-60
2020/12/16 18:38:06;;;;;;;1999.90;999.90;;;;;;;10.46;75.58;101766.06;15876216;28;20047;-61
2020/12/16 18:45:39;;;;;;;1999.90;999.90;;;;;;;10.27;75.79;101766.94;15876071;28;20301;-57
2020/12/16 18:53:13;;;;;;;1999.90;999.90;;;;;;;10.05;75.80;101766.75;15857296;27;20036;-63
2020/12/16 19:00:47;;;;;;;1999.90;999.90;;;;;;;9.91;76.72;101768.66;15874664;28;20128;-61
2020/12/16 19:08:21;;;;;;;1999.90;999.90;;;;;;;9.95;76.10;101772.47;15856029;28;20050;-61
2020/12/16 19:15:54;;;;;;;1999.90;999.90;;;;;;;9.51;77.04;101765.34;15873618;28;20040;-59
2020/12/16 19:23:27;;;;;;;1999.90;999.90;;;;;;;9.37;78.06;101759.66;15855883;28;20040;-58
2020/12/16 19:31:02;;;;;;;1999.90;999.90;;;;;;;9.15;79.10;101751.88;15871196;28;20122;-59
2020/12/16 19:38:37;;;;;;;1999.90;999.90;;;;;;;8.84;79.57;101747.81;15870754;28;20115;-58
2020/12/16 19:46:09;;;;;;;1999.90;999.90;;;;;;;8.69;79.93;101740.50;15850718;28;20131;-62
2020/12/16 19:53:43;;;;;;;1999.90;999.90;;;;;;;8.61;80.35;101743.91;15869054;28;20181;-60
2020/12/16 20:01:15;;;;;;;1999.90;999.90;;;;;;;8.60;79.87;101753.38;15852866;28;20046;-64
2020/12/16 20:09:07;;;;;;;1999.90;999.90;;;;;;;8.39;80.06;101745.25;15840603;28;20427;-63
2020/12/16 20:16:45;;;;;;;1999.90;999.90;;;;;;;8.13;80.66;101746.59;15866119;28;20062;-61
2020/12/16 20:24:19;;;;;;;1999.90;999.90;;;;;;;7.99;80.24;101746.41;15842894;28;20119;-61
2020/12/16 20:31:54;;;;;;;1999.90;999.90;;;;;;;7.90;79.46;101739.00;15866171;27;20040;-59
2020/12/16 20:39:28;;;;;;;;;;;;;;;7.85;78.38;101745.44;15865366;28;20119;-58
2020/12/16 20:47:01;;;;;;;1999.90;999.90;;;;;;;7.70;78.38;101738.03;15848901;27;19920;-59
2020/12/16 20:54:35;;;;;;;1999.90;999.90;;;;;;;7.57;78.44;101741.47;15864888;28;20047;-61
2020/12/16 21:02:08;;;;;;;1999.90;999.90;;;;;;;7.37;78.33;101730.47;15867046;28;20579;-58
2020/12/16 21:09:43;;;;;;;1999.90;999.90;;;;;;;7.23;78.27;101719.19;15847884;28;20046;-57
2020/12/16 21:17:15;;;;;;;1999.90;999.90;;;;;;;7.11;78.75;101711.22;15829592;28;20047;-59
2020/12/16 21:24:49;;;;;;;1999.90;999.90;;;;;;;7.16;78.15;101710.34;15843082;28;20500;-58
2020/12/16 21:32:21;;;;;;;1999.90;999.90;;;;;;;6.84;78.98;101702.44;15866348;28;20501;-61
2020/12/16 21:39:55;;;;;;;1999.90;999.90;;;;;;;6.95;78.90;101679.91;15845590;28;20425;-59
2020/12/16 21:47:28;;;;;;;1999.90;999.90;;;;;;;6.68;79.21;101668.41;15844401;28;20139;-63
2020/12/16 21:55:01;;;;;;;1999.90;999.90;;;;;;;6.68;78.34;101687.81;15862694;28;20047;-61
2020/12/16 22:02:34;;;;;;;1999.90;999.90;;;;;;;6.41;79.31;101707.59;15862319;28;20149;-58
2020/12/16 22:10:10;;;;;;;1999.90;999.90;;;;;;;6.47;78.37;101689.84;15864912;28;20048;-60
2020/12/16 22:17:42;;;;;;;1999.90;999.90;;;;;;;6.48;77.88;101694.28;15847496;28;20527;-62
2020/12/16 22:25:16;;;;;;;1999.90;999.90;;;;;;;6.51;77.61;101688.16;15847442;28;20036;-61
2020/12/16 22:32:48;;;;;;;1999.90;999.90;;;;;;;6.42;78.19;101695.38;15851958;28;20096;-58
2020/12/16 22:40:22;;;;;;;1999.90;999.90;;;;;;;6.57;77.57;101683.44;15876467;28;20142;-63
2020/12/16 22:47:54;;;;;;;1999.90;999.90;;;;;;;6.62;77.10;101691.72;15876286;27;20048;-59
2020/12/16 22:55:28;;;;;;;1999.90;999.90;;;;;;;6.76;76.17;101684.44;15875769;28;20067;-59
2020/12/16 23:03:00;;;;;;;;;;;;;;;6.92;75.81;101679.66;15857432;28;20393;-57
2020/12/16 23:10:34;;;;;;;1999.90;999.90;;;;;;;6.74;76.29;101683.91;15875125;28;20147;-59
2020/12/16 23:18:06;;;;;;;1999.90;999.90;;;;;;;6.77;75.66;101693.59;15874662;28;20054;-62
2020/12/16 23:25:41;;;;;;;1999.90;999.90;;;;;;;6.66;75.92;101665.06;15854474;28;20130;-61
2020/12/16 23:33:14;;;;;;;1999.90;999.90;;;;;;;6.63;76.63;101641.50;15873539;28;20040;-58
2020/12/16 23:40:51;;;;;;;1999.90;999.90;;;;;;;6.90;75.32;101659.69;15831654;28;20054;-60
2020/12/16 23:48:24;;;;;;;1999.90;999.90;;;;;;;6.88;75.21;101650.84;15872334;28;20376;-57
2020/12/16 23:55:57;;;;;;;1999.90;999.90;;;;;;;6.66;75.83;101640.94;15871953;28;20039;-61
